sensor_id;sensor_type;location;lat;lon;timestamp;temperature;humidity
3334;DHT22;1679;50.392;8.008;2023-06-14T00:01:17;16.00;99.90
3334;DHT22;1679;50.392;8.008;2023-06-14T00:03:45;15.90;99.90
3334;DHT22;1679;50.392;8.008;2023-06-14T00:06:14;15.90;99.90
3334;DHT22;1679;50.392;8.008;2023-06-14T00:08:39;15.80;99.90
3334;DHT22;1679;50.392;8.008;2023-06-14T00:11:06;15.80;99.90
3334;DHT22;1679;50.392;8.008;2023-06-14T00:13:31;15.70;99.90
3334;DHT22;1679;50.392;8.008;2023-06-14T00:15:57;15.70;99.90
3334;DHT22;1679;50.392;8.008;2023-06-14T00:18:23;15.60;99.90
3334;DHT22;1679;50.392;8.008;2023-06-14T00:20:55;15.50;99.90
3334;DHT22;1679;50.392;8.008;2023-06-14T00:23:21;15.50;99.90
3334;DHT22;1679;50.392;8.008;2023-06-14T00:25:46;15.40;99.90
3334;DHT22;1679;50.392;8.008;2023-06-14T00:28:12;15.40;99.90
3334;DHT22;1679;50.392;8.008;2023-06-14T00:30:38;15.30;99.90
3334;DHT22;1679;50.392;8.008;2023-06-14T00:33:04;15.30;99.90
3334;DHT22;1679;50.392;8.008;2023-06-14T00:35:29;15.20;99.90
3334;DHT22;1679;50.392;8.008;2023-06-14T00:37:55;15.20;99.90
3334;DHT22;1679;50.392;8.008;2023-06-14T00:40:21;15.20;99.90
3334;DHT22;1679;50.392;8.008;2023-06-14T00:42:47;15.10;99.90
3334;DHT22;1679;50.392;8.008;2023-06-14T00:45:13;15.20;99.90
3334;DHT22;1679;50.392;8.008;2023-06-14T00:47:40;15.30;99.90
3334;DHT22;1679;50.392;8.008;2023-06-14T00:50:07;15.20;99.90
3334;DHT22;1679;50.392;8.008;2023-06-14T00:52:33;15.10;99.90
3334;DHT22;1679;50.392;8.008;2023-06-14T00:54:59;15.10;99.90
3334;DHT22;1679;50.392;8.008;2023-06-14T00:57:26;15.10;99.90
3334;DHT22;1679;50.392;8.008;2023-06-14T00:59:52;15.00;99.90
3334;DHT22;1679;50.392;8.008;2023-06-14T01:02:18;15.00;99.90
3334;DHT22;1679;50.392;8.008;2023-06-14T01:04:47;14.90;99.90
3334;DHT22;1679;50.392;8.008;2023-06-14T01:10:39;14.80;99.90
3334;DHT22;1679;50.392;8.008;2023-06-14T01:15:43;14.80;99.90
3334;DHT22;1679;50.392;8.008;2023-06-14T01:18:09;14.80;99.90
3334;DHT22;1679;50.392;8.008;2023-06-14T01:20:44;14.70;99.90
3334;DHT22;1679;50.392;8.008;2023-06-14T01:23:21;14.70;99.90
3334;DHT22;1679;50.392;8.008;2023-06-14T01:25:47;14.70;99.90
3334;DHT22;1679;50.392;8.008;2023-06-14T01:28:19;14.70;99.90
3334;DHT22;1679;50.392;8.008;2023-06-14T01:30:51;14.60;99.90
3334;DHT22;1679;50.392;8.008;2023-06-14T01:33:24;14.50;99.90
3334;DHT22;1679;50.392;8.008;2023-06-14T01:35:52;14.50;99.90
3334;DHT22;1679;50.392;8.008;2023-06-14T01:38:24;14.60;99.90
3334;DHT22;1679;50.392;8.008;2023-06-14T01:40:50;14.50;99.90
3334;DHT22;1679;50.392;8.008;2023-06-14T01:43:18;14.60;99.90
3334;DHT22;1679;50.392;8.008;2023-06-14T01:45:46;14.60;99.90
3334;DHT22;1679;50.392;8.008;2023-06-14T01:48:13;14.60;99.90
3334;DHT22;1679;50.392;8.008;2023-06-14T01:50:39;14.80;99.90
3334;DHT22;1679;50.392;8.008;2023-06-14T01:53:08;15.00;99.90
3334;DHT22;1679;50.392;8.008;2023-06-14T01:55:34;15.20;99.90
3334;DHT22;1679;50.392;8.008;2023-06-14T01:58:03;15.30;99.90
3334;DHT22;1679;50.392;8.008;2023-06-14T02:00:29;15.40;99.90
3334;DHT22;1679;50.392;8.008;2023-06-14T02:02:54;15.40;99.90
3334;DHT22;1679;50.392;8.008;2023-06-14T02:05:21;15.40;99.90
3334;DHT22;1679;50.392;8.008;2023-06-14T02:07:46;15.30;99.90
3334;DHT22;1679;50.392;8.008;2023-06-14T02:10:12;15.20;99.90
3334;DHT22;1679;50.392;8.008;2023-06-14T02:12:38;15.00;99.90
3334;DHT22;1679;50.392;8.008;2023-06-14T02:15:03;14.90;99.90
3334;DHT22;1679;50.392;8.008;2023-06-14T02:17:29;14.70;99.90
3334;DHT22;1679;50.392;8.008;2023-06-14T02:19:55;14.60;99.90
3334;DHT22;1679;50.392;8.008;2023-06-14T02:22:22;14.50;99.90
3334;DHT22;1679;50.392;8.008;2023-06-14T02:24:48;14.50;99.90
3334;DHT22;1679;50.392;8.008;2023-06-14T02:27:14;14.50;99.90
3334;DHT22;1679;50.392;8.008;2023-06-14T02:29:39;14.50;99.90
3334;DHT22;1679;50.392;8.008;2023-06-14T02:32:05;14.40;99.90
3334;DHT22;1679;50.392;8.008;2023-06-14T02:34:33;14.30;99.90
3334;DHT22;1679;50.392;8.008;2023-06-14T02:36:59;14.30;99.90
3334;DHT22;1679;50.392;8.008;2023-06-14T02:39:24;14.20;99.90
3334;DHT22;1679;50.392;8.008;2023-06-14T02:41:50;14.00;99.90
3334;DHT22;1679;50.392;8.008;2023-06-14T02:44:18;13.90;99.90
3334;DHT22;1679;50.392;8.008;2023-06-14T02:46:43;13.80;99.90
3334;DHT22;1679;50.392;8.008;2023-06-14T02:49:10;13.80;99.90
3334;DHT22;1679;50.392;8.008;2023-06-14T02:51:36;13.80;99.90
3334;DHT22;1679;50.392;8.008;2023-06-14T02:54:01;13.70;99.90
3334;DHT22;1679;50.392;8.008;2023-06-14T02:56:27;13.70;99.90
3334;DHT22;1679;50.392;8.008;2023-06-14T02:58:53;13.60;99.90
3334;DHT22;1679;50.392;8.008;2023-06-14T03:01:19;13.60;99.90
3334;DHT22;1679;50.392;8.008;2023-06-14T03:03:46;13.60;99.90
3334;DHT22;1679;50.392;8.008;2023-06-14T03:06:11;13.60;99.90
3334;DHT22;1679;50.392;8.008;2023-06-14T03:08:38;13.60;99.90
3334;DHT22;1679;50.392;8.008;2023-06-14T03:11:04;13.60;99.90
3334;DHT22;1679;50.392;8.008;2023-06-14T03:13:37;13.50;99.90
3334;DHT22;1679;50.392;8.008;2023-06-14T03:16:04;13.50;99.90
3334;DHT22;1679;50.392;8.008;2023-06-14T03:18:30;13.50;99.90
3334;DHT22;1679;50.392;8.008;2023-06-14T03:20:56;13.40;99.90
3334;DHT22;1679;50.392;8.008;2023-06-14T03:23:24;13.30;99.90
3334;DHT22;1679;50.392;8.008;2023-06-14T03:25:50;13.30;99.90
3334;DHT22;1679;50.392;8.008;2023-06-14T03:28:16;13.40;99.90
3334;DHT22;1679;50.392;8.008;2023-06-14T03:30:42;13.40;99.90
3334;DHT22;1679;50.392;8.008;2023-06-14T03:33:08;13.40;99.90
3334;DHT22;1679;50.392;8.008;2023-06-14T03:35:33;13.50;99.90
3334;DHT22;1679;50.392;8.008;2023-06-14T03:37:59;13.50;99.90
3334;DHT22;1679;50.392;8.008;2023-06-14T03:40:24;13.50;99.90
3334;DHT22;1679;50.392;8.008;2023-06-14T03:42:54;13.60;99.90
3334;DHT22;1679;50.392;8.008;2023-06-14T03:45:19;13.60;99.90
3334;DHT22;1679;50.392;8.008;2023-06-14T03:47:45;13.60;99.90
3334;DHT22;1679;50.392;8.008;2023-06-14T03:50:11;13.70;99.90
3334;DHT22;1679;50.392;8.008;2023-06-14T03:52:37;13.70;99.90
3334;DHT22;1679;50.392;8.008;2023-06-14T03:55:03;13.70;99.90
3334;DHT22;1679;50.392;8.008;2023-06-14T03:57:29;13.70;99.90
3334;DHT22;1679;50.392;8.008;2023-06-14T03:59:55;13.70;99.90
3334;DHT22;1679;50.392;8.008;2023-06-14T04:02:20;13.80;99.90
3334;DHT22;1679;50.392;8.008;2023-06-14T04:04:46;13.70;99.90
3334;DHT22;1679;50.392;8.008;2023-06-14T04:07:16;13.70;99.90
3334;DHT22;1679;50.392;8.008;2023-06-14T04:09:45;13.70;99.90
3334;DHT22;1679;50.392;8.008;2023-06-14T04:12:10;13.80;99.90
3334;DHT22;1679;50.392;8.008;2023-06-14T04:14:37;13.80;99.90
3334;DHT22;1679;50.392;8.008;2023-06-14T04:17:04;13.90;99.90
3334;DHT22;1679;50.392;8.008;2023-06-14T04:19:30;14.00;99.90
3334;DHT22;1679;50.392;8.008;2023-06-14T04:21:55;14.10;99.90
3334;DHT22;1679;50.392;8.008;2023-06-14T04:24:21;14.10;99.90
3334;DHT22;1679;50.392;8.008;2023-06-14T04:26:49;14.20;99.90
3334;DHT22;1679;50.392;8.008;2023-06-14T04:29:15;14.30;99.90
3334;DHT22;1679;50.392;8.008;2023-06-14T04:31:42;14.30;99.90
3334;DHT22;1679;50.392;8.008;2023-06-14T04:34:08;14.40;99.90
3334;DHT22;1679;50.392;8.008;2023-06-14T04:36:34;14.60;99.90
3334;DHT22;1679;50.392;8.008;2023-06-14T04:39:05;14.70;99.90
3334;DHT22;1679;50.392;8.008;2023-06-14T04:41:31;14.80;99.90
3334;DHT22;1679;50.392;8.008;2023-06-14T04:44:00;14.80;99.90
3334;DHT22;1679;50.392;8.008;2023-06-14T04:46:29;14.90;99.90
3334;DHT22;1679;50.392;8.008;2023-06-14T04:48:55;15.00;99.90
3334;DHT22;1679;50.392;8.008;2023-06-14T04:51:22;15.00;99.90
3334;DHT22;1679;50.392;8.008;2023-06-14T04:53:57;15.10;99.90
3334;DHT22;1679;50.392;8.008;2023-06-14T04:56:24;15.20;99.90
3334;DHT22;1679;50.392;8.008;2023-06-14T04:58:50;15.20;99.90
3334;DHT22;1679;50.392;8.008;2023-06-14T05:01:17;15.30;99.90
3334;DHT22;1679;50.392;8.008;2023-06-14T05:03:42;15.40;99.90
3334;DHT22;1679;50.392;8.008;2023-06-14T05:06:10;15.50;99.90
3334;DHT22;1679;50.392;8.008;2023-06-14T05:08:37;15.50;99.90
3334;DHT22;1679;50.392;8.008;2023-06-14T05:11:02;15.60;99.90
3334;DHT22;1679;50.392;8.008;2023-06-14T05:13:28;15.70;99.90
3334;DHT22;1679;50.392;8.008;2023-06-14T05:15:53;15.80;99.90
3334;DHT22;1679;50.392;8.008;2023-06-14T05:18:20;15.90;99.90
3334;DHT22;1679;50.392;8.008;2023-06-14T05:20:45;15.90;99.90
3334;DHT22;1679;50.392;8.008;2023-06-14T05:23:13;16.00;99.90
3334;DHT22;1679;50.392;8.008;2023-06-14T05:25:42;16.10;99.90
3334;DHT22;1679;50.392;8.008;2023-06-14T05:28:08;16.10;99.90
3334;DHT22;1679;50.392;8.008;2023-06-14T05:30:37;16.20;99.90
3334;DHT22;1679;50.392;8.008;2023-06-14T05:33:03;16.20;99.90
3334;DHT22;1679;50.392;8.008;2023-06-14T05:35:29;16.20;99.90
3334;DHT22;1679;50.392;8.008;2023-06-14T05:37:54;16.20;99.90
3334;DHT22;1679;50.392;8.008;2023-06-14T05:40:20;16.30;99.90
3334;DHT22;1679;50.392;8.008;2023-06-14T05:42:47;16.30;99.90
3334;DHT22;1679;50.392;8.008;2023-06-14T05:45:12;16.40;99.90
3334;DHT22;1679;50.392;8.008;2023-06-14T05:47:39;16.50;99.90
3334;DHT22;1679;50.392;8.008;2023-06-14T05:50:05;16.60;99.90
3334;DHT22;1679;50.392;8.008;2023-06-14T05:52:30;16.70;99.90
3334;DHT22;1679;50.392;8.008;2023-06-14T05:54:57;16.80;99.90
3334;DHT22;1679;50.392;8.008;2023-06-14T05:57:22;16.90;99.90
3334;DHT22;1679;50.392;8.008;2023-06-14T05:59:47;17.10;99.90
3334;DHT22;1679;50.392;8.008;2023-06-14T06:02:13;17.20;99.90
3334;DHT22;1679;50.392;8.008;2023-06-14T06:04:38;17.10;99.90
3334;DHT22;1679;50.392;8.008;2023-06-14T06:07:05;17.20;99.90
3334;DHT22;1679;50.392;8.008;2023-06-14T06:09:31;17.30;99.90
3334;DHT22;1679;50.392;8.008;2023-06-14T06:11:56;17.40;99.90
3334;DHT22;1679;50.392;8.008;2023-06-14T06:14:22;17.40;99.90
3334;DHT22;1679;50.392;8.008;2023-06-14T06:16:47;17.60;99.90
3334;DHT22;1679;50.392;8.008;2023-06-14T06:19:13;17.70;99.90
3334;DHT22;1679;50.392;8.008;2023-06-14T06:21:38;17.90;99.90
3334;DHT22;1679;50.392;8.008;2023-06-14T06:24:05;17.90;99.90
3334;DHT22;1679;50.392;8.008;2023-06-14T06:26:31;17.90;99.90
3334;DHT22;1679;50.392;8.008;2023-06-14T06:28:57;18.10;99.90
3334;DHT22;1679;50.392;8.008;2023-06-14T06:31:23;18.10;99.90
3334;DHT22;1679;50.392;8.008;2023-06-14T06:33:49;18.30;99.90
3334;DHT22;1679;50.392;8.008;2023-06-14T06:36:15;18.60;99.90
3334;DHT22;1679;50.392;8.008;2023-06-14T06:38:41;18.90;99.90
3334;DHT22;1679;50.392;8.008;2023-06-14T06:41:07;19.10;99.90
3334;DHT22;1679;50.392;8.008;2023-06-14T06:43:32;19.30;99.90
3334;DHT22;1679;50.392;8.008;2023-06-14T06:45:58;19.60;99.90
3334;DHT22;1679;50.392;8.008;2023-06-14T06:48:23;19.70;99.90
3334;DHT22;1679;50.392;8.008;2023-06-14T06:50:49;19.80;99.90
3334;DHT22;1679;50.392;8.008;2023-06-14T06:53:14;20.10;99.90
3334;DHT22;1679;50.392;8.008;2023-06-14T06:55:40;20.40;99.90
3334;DHT22;1679;50.392;8.008;2023-06-14T06:58:06;20.90;99.90
3334;DHT22;1679;50.392;8.008;2023-06-14T07:00:31;21.30;99.90
3334;DHT22;1679;50.392;8.008;2023-06-14T07:02:57;21.30;99.90
3334;DHT22;1679;50.392;8.008;2023-06-14T07:05:23;21.40;99.90
3334;DHT22;1679;50.392;8.008;2023-06-14T07:07:48;21.70;99.90
3334;DHT22;1679;50.392;8.008;2023-06-14T07:10:14;22.30;99.90
3334;DHT22;1679;50.392;8.008;2023-06-14T07:12:39;22.60;99.90
3334;DHT22;1679;50.392;8.008;2023-06-14T07:15:06;23.00;99.90
3334;DHT22;1679;50.392;8.008;2023-06-14T07:17:33;23.10;99.90
3334;DHT22;1679;50.392;8.008;2023-06-14T07:19:59;23.20;99.90
3334;DHT22;1679;50.392;8.008;2023-06-14T07:22:26;23.60;99.90
3334;DHT22;1679;50.392;8.008;2023-06-14T07:24:51;23.70;99.40
3334;DHT22;1679;50.392;8.008;2023-06-14T07:27:17;23.10;99.00
3334;DHT22;1679;50.392;8.008;2023-06-14T07:29:43;22.20;99.90
3334;DHT22;1679;50.392;8.008;2023-06-14T07:32:08;21.80;99.90
3334;DHT22;1679;50.392;8.008;2023-06-14T07:34:34;21.80;99.90
3334;DHT22;1679;50.392;8.008;2023-06-14T07:36:59;22.50;99.90
3334;DHT22;1679;50.392;8.008;2023-06-14T07:39:25;22.90;99.30
3334;DHT22;1679;50.392;8.008;2023-06-14T07:41:50;22.80;99.90
3334;DHT22;1679;50.392;8.008;2023-06-14T07:44:16;23.30;99.40
3334;DHT22;1679;50.392;8.008;2023-06-14T07:46:41;23.50;98.80
3334;DHT22;1679;50.392;8.008;2023-06-14T07:49:07;23.90;98.50
3334;DHT22;1679;50.392;8.008;2023-06-14T07:51:33;24.40;97.80
3334;DHT22;1679;50.392;8.008;2023-06-14T07:53:59;24.60;96.90
3334;DHT22;1679;50.392;8.008;2023-06-14T07:56:26;25.10;97.10
3334;DHT22;1679;50.392;8.008;2023-06-14T07:58:51;25.50;96.60
3334;DHT22;1679;50.392;8.008;2023-06-14T08:01:17;25.60;95.70
3334;DHT22;1679;50.392;8.008;2023-06-14T08:03:43;25.10;95.20
3334;DHT22;1679;50.392;8.008;2023-06-14T08:06:08;24.20;96.80
3334;DHT22;1679;50.392;8.008;2023-06-14T08:08:34;24.20;96.70
3334;DHT22;1679;50.392;8.008;2023-06-14T08:10:59;24.20;96.90
3334;DHT22;1679;50.392;8.008;2023-06-14T08:13:25;24.60;96.20
3334;DHT22;1679;50.392;8.008;2023-06-14T08:15:50;25.00;95.90
3334;DHT22;1679;50.392;8.008;2023-06-14T08:18:17;25.10;95.20
3334;DHT22;1679;50.392;8.008;2023-06-14T08:20:43;24.50;96.00
3334;DHT22;1679;50.392;8.008;2023-06-14T08:23:09;24.50;95.70
3334;DHT22;1679;50.392;8.008;2023-06-14T08:25:35;24.80;95.40
3334;DHT22;1679;50.392;8.008;2023-06-14T08:28:00;24.80;95.50
3334;DHT22;1679;50.392;8.008;2023-06-14T08:30:26;25.10;95.30
3334;DHT22;1679;50.392;8.008;2023-06-14T08:32:52;25.60;94.90
3334;DHT22;1679;50.392;8.008;2023-06-14T08:35:17;26.00;95.00
3334;DHT22;1679;50.392;8.008;2023-06-14T08:37:43;25.40;94.80
3334;DHT22;1679;50.392;8.008;2023-06-14T08:40:21;24.40;95.90
3334;DHT22;1679;50.392;8.008;2023-06-14T08:42:51;23.60;96.60
3334;DHT22;1679;50.392;8.008;2023-06-14T08:45:17;23.30;96.50
3334;DHT22;1679;50.392;8.008;2023-06-14T08:47:44;23.30;96.30
3334;DHT22;1679;50.392;8.008;2023-06-14T08:50:11;23.00;95.90
3334;DHT22;1679;50.392;8.008;2023-06-14T08:52:38;22.60;96.80
3334;DHT22;1679;50.392;8.008;2023-06-14T08:55:07;22.20;96.00
3334;DHT22;1679;50.392;8.008;2023-06-14T08:57:36;22.00;95.70
3334;DHT22;1679;50.392;8.008;2023-06-14T09:00:03;21.90;96.70
3334;DHT22;1679;50.392;8.008;2023-06-14T09:02:37;22.00;97.40
3334;DHT22;1679;50.392;8.008;2023-06-14T09:05:03;22.50;97.20
3334;DHT22;1679;50.392;8.008;2023-06-14T09:07:29;23.20;96.70
3334;DHT22;1679;50.392;8.008;2023-06-14T09:10:08;23.60;96.40
3334;DHT22;1679;50.392;8.008;2023-06-14T09:12:34;23.80;96.30
3334;DHT22;1679;50.392;8.008;2023-06-14T09:14:59;24.30;94.70
3334;DHT22;1679;50.392;8.008;2023-06-14T09:17:25;24.70;93.60
3334;DHT22;1679;50.392;8.008;2023-06-14T09:19:51;24.20;93.40
3334;DHT22;1679;50.392;8.008;2023-06-14T09:22:16;24.30;93.30
3334;DHT22;1679;50.392;8.008;2023-06-14T09:24:42;24.50;94.30
3334;DHT22;1679;50.392;8.008;2023-06-14T09:27:08;23.80;94.40
3334;DHT22;1679;50.392;8.008;2023-06-14T09:29:33;24.10;94.10
3334;DHT22;1679;50.392;8.008;2023-06-14T09:31:59;24.20;93.40
3334;DHT22;1679;50.392;8.008;2023-06-14T09:34:24;23.90;94.10
3334;DHT22;1679;50.392;8.008;2023-06-14T09:36:50;23.60;94.40
3334;DHT22;1679;50.392;8.008;2023-06-14T09:39:17;23.10;94.30
3334;DHT22;1679;50.392;8.008;2023-06-14T09:41:43;22.40;95.10
3334;DHT22;1679;50.392;8.008;2023-06-14T09:44:10;22.40;96.30
3334;DHT22;1679;50.392;8.008;2023-06-14T09:46:37;22.20;95.40
3334;DHT22;1679;50.392;8.008;2023-06-14T09:49:04;22.30;96.50
3334;DHT22;1679;50.392;8.008;2023-06-14T09:51:30;22.80;96.70
3334;DHT22;1679;50.392;8.008;2023-06-14T09:54:01;23.10;95.40
3334;DHT22;1679;50.392;8.008;2023-06-14T09:56:41;23.20;96.40
3334;DHT22;1679;50.392;8.008;2023-06-14T09:59:09;23.40;95.10
3334;DHT22;1679;50.392;8.008;2023-06-14T10:01:37;23.80;94.80
3334;DHT22;1679;50.392;8.008;2023-06-14T10:04:06;24.30;94.40
3334;DHT22;1679;50.392;8.008;2023-06-14T10:06:35;24.60;93.00
3334;DHT22;1679;50.392;8.008;2023-06-14T10:09:04;24.40;93.40
3334;DHT22;1679;50.392;8.008;2023-06-14T10:11:32;23.60;94.40
3334;DHT22;1679;50.392;8.008;2023-06-14T10:13:58;23.00;96.60
3334;DHT22;1679;50.392;8.008;2023-06-14T10:22:13;22.10;96.00
3334;DHT22;1679;50.392;8.008;2023-06-14T10:24:44;21.60;96.90
3334;DHT22;1679;50.392;8.008;2023-06-14T10:27:11;21.30;97.70
3334;DHT22;1679;50.392;8.008;2023-06-14T10:32:22;21.60;96.60
3334;DHT22;1679;50.392;8.008;2023-06-14T10:34:54;21.80;97.00
3334;DHT22;1679;50.392;8.008;2023-06-14T10:37:21;22.10;96.90
3334;DHT22;1679;50.392;8.008;2023-06-14T10:39:46;22.50;97.00
3334;DHT22;1679;50.392;8.008;2023-06-14T10:42:13;22.80;95.30
3334;DHT22;1679;50.392;8.008;2023-06-14T10:44:52;23.00;95.80
3334;DHT22;1679;50.392;8.008;2023-06-14T10:47:26;23.60;96.20
3334;DHT22;1679;50.392;8.008;2023-06-14T10:49:54;23.30;95.50
3334;DHT22;1679;50.392;8.008;2023-06-14T10:52:22;22.90;96.10
3334;DHT22;1679;50.392;8.008;2023-06-14T10:55:15;23.20;95.60
3334;DHT22;1679;50.392;8.008;2023-06-14T10:57:49;23.30;95.50
3334;DHT22;1679;50.392;8.008;2023-06-14T11:00:28;22.90;95.00
3334;DHT22;1679;50.392;8.008;2023-06-14T11:03:46;22.50;96.60
3334;DHT22;1679;50.392;8.008;2023-06-14T11:06:17;22.30;97.00
3334;DHT22;1679;50.392;8.008;2023-06-14T11:09:20;22.00;96.00
3334;DHT22;1679;50.392;8.008;2023-06-14T11:11:51;22.10;96.90
3334;DHT22;1679;50.392;8.008;2023-06-14T11:14:19;22.20;96.90
3334;DHT22;1679;50.392;8.008;2023-06-14T11:16:51;22.50;95.90
3334;DHT22;1679;50.392;8.008;2023-06-14T11:19:17;22.50;96.90
3334;DHT22;1679;50.392;8.008;2023-06-14T11:21:46;22.60;96.80
3334;DHT22;1679;50.392;8.008;2023-06-14T11:24:12;22.80;95.90
3334;DHT22;1679;50.392;8.008;2023-06-14T11:26:38;22.80;96.20
3334;DHT22;1679;50.392;8.008;2023-06-14T11:29:03;23.10;97.10
3334;DHT22;1679;50.392;8.008;2023-06-14T11:31:29;23.20;96.10
3334;DHT22;1679;50.392;8.008;2023-06-14T11:33:56;23.50;95.60
3334;DHT22;1679;50.392;8.008;2023-06-14T11:36:23;23.70;94.80
3334;DHT22;1679;50.392;8.008;2023-06-14T11:38:49;23.50;94.90
3334;DHT22;1679;50.392;8.008;2023-06-14T11:41:14;23.50;95.10
3334;DHT22;1679;50.392;8.008;2023-06-14T11:43:40;23.80;94.50
3334;DHT22;1679;50.392;8.008;2023-06-14T11:46:12;24.10;94.70
3334;DHT22;1679;50.392;8.008;2023-06-14T11:48:41;23.30;95.20
3334;DHT22;1679;50.392;8.008;2023-06-14T11:51:07;22.40;95.80
3334;DHT22;1679;50.392;8.008;2023-06-14T11:53:33;22.00;96.00
3334;DHT22;1679;50.392;8.008;2023-06-14T11:55:59;21.90;96.40
3334;DHT22;1679;50.392;8.008;2023-06-14T11:58:25;21.90;96.60
3334;DHT22;1679;50.392;8.008;2023-06-14T12:00:54;22.10;96.70
3334;DHT22;1679;50.392;8.008;2023-06-14T12:03:25;22.70;96.10
3334;DHT22;1679;50.392;8.008;2023-06-14T12:06:01;23.40;95.00
3334;DHT22;1679;50.392;8.008;2023-06-14T12:08:32;23.60;95.40
3334;DHT22;1679;50.392;8.008;2023-06-14T12:11:04;23.80;93.70
3334;DHT22;1679;50.392;8.008;2023-06-14T12:13:29;23.60;93.30
3334;DHT22;1679;50.392;8.008;2023-06-14T12:15:56;23.20;94.60
3334;DHT22;1679;50.392;8.008;2023-06-14T12:18:32;23.30;94.40
3334;DHT22;1679;50.392;8.008;2023-06-14T12:21:00;23.70;93.90
3334;DHT22;1679;50.392;8.008;2023-06-14T12:23:46;24.00;92.80
3334;DHT22;1679;50.392;8.008;2023-06-14T12:26:16;23.80;94.70
3334;DHT22;1679;50.392;8.008;2023-06-14T12:28:42;23.50;94.00
3334;DHT22;1679;50.392;8.008;2023-06-14T12:31:10;23.70;93.90
3334;DHT22;1679;50.392;8.008;2023-06-14T12:33:36;23.80;94.50
3334;DHT22;1679;50.392;8.008;2023-06-14T12:36:04;23.20;94.10
3334;DHT22;1679;50.392;8.008;2023-06-14T12:38:30;22.70;94.50
3334;DHT22;1679;50.392;8.008;2023-06-14T12:40:55;22.50;94.80
3334;DHT22;1679;50.392;8.008;2023-06-14T12:43:22;22.80;95.10
3334;DHT22;1679;50.392;8.008;2023-06-14T12:45:48;23.10;94.90
3334;DHT22;1679;50.392;8.008;2023-06-14T12:48:14;23.50;93.50
3334;DHT22;1679;50.392;8.008;2023-06-14T12:50:40;24.00;92.70
3334;DHT22;1679;50.392;8.008;2023-06-14T12:53:06;24.10;92.90
3334;DHT22;1679;50.392;8.008;2023-06-14T12:55:32;23.80;93.40
3334;DHT22;1679;50.392;8.008;2023-06-14T12:57:58;23.30;94.20
3334;DHT22;1679;50.392;8.008;2023-06-14T13:00:24;22.80;94.10
3334;DHT22;1679;50.392;8.008;2023-06-14T13:02:51;22.70;94.60
3334;DHT22;1679;50.392;8.008;2023-06-14T13:05:17;22.80;95.40
3334;DHT22;1679;50.392;8.008;2023-06-14T13:07:43;22.80;95.20
3334;DHT22;1679;50.392;8.008;2023-06-14T13:10:10;23.10;95.20
3334;DHT22;1679;50.392;8.008;2023-06-14T13:12:36;23.40;94.50
3334;DHT22;1679;50.392;8.008;2023-06-14T13:15:02;23.70;94.60
3334;DHT22;1679;50.392;8.008;2023-06-14T13:17:27;23.30;94.50
3334;DHT22;1679;50.392;8.008;2023-06-14T13:19:53;22.80;96.30
3334;DHT22;1679;50.392;8.008;2023-06-14T13:22:19;22.60;95.40
3334;DHT22;1679;50.392;8.008;2023-06-14T13:24:44;22.50;96.80
3334;DHT22;1679;50.392;8.008;2023-06-14T13:27:10;22.70;96.40
3334;DHT22;1679;50.392;8.008;2023-06-14T13:29:36;22.60;96.30
3334;DHT22;1679;50.392;8.008;2023-06-14T13:32:02;22.70;95.10
3334;DHT22;1679;50.392;8.008;2023-06-14T13:34:28;22.70;95.30
3334;DHT22;1679;50.392;8.008;2023-06-14T13:36:55;22.70;95.40
3334;DHT22;1679;50.392;8.008;2023-06-14T13:39:21;22.70;95.60
3334;DHT22;1679;50.392;8.008;2023-06-14T13:41:46;22.60;96.00
3334;DHT22;1679;50.392;8.008;2023-06-14T13:44:12;22.50;95.80
3334;DHT22;1679;50.392;8.008;2023-06-14T13:46:39;22.40;96.20
3334;DHT22;1679;50.392;8.008;2023-06-14T13:49:05;22.30;96.10
3334;DHT22;1679;50.392;8.008;2023-06-14T13:51:31;22.60;95.70
3334;DHT22;1679;50.392;8.008;2023-06-14T13:53:59;23.00;97.30
3334;DHT22;1679;50.392;8.008;2023-06-14T13:56:25;23.20;95.80
3334;DHT22;1679;50.392;8.008;2023-06-14T13:58:51;23.40;95.30
3334;DHT22;1679;50.392;8.008;2023-06-14T14:01:17;23.70;95.40
3334;DHT22;1679;50.392;8.008;2023-06-14T14:03:45;23.90;94.80
3334;DHT22;1679;50.392;8.008;2023-06-14T14:06:11;23.80;94.30
3334;DHT22;1679;50.392;8.008;2023-06-14T14:08:37;23.60;94.20
3334;DHT22;1679;50.392;8.008;2023-06-14T14:11:05;23.50;94.90
3334;DHT22;1679;50.392;8.008;2023-06-14T14:13:31;23.60;95.00
3334;DHT22;1679;50.392;8.008;2023-06-14T14:15:57;23.60;94.00
3334;DHT22;1679;50.392;8.008;2023-06-14T14:18:22;23.90;93.20
3334;DHT22;1679;50.392;8.008;2023-06-14T14:20:48;24.20;93.20
3334;DHT22;1679;50.392;8.008;2023-06-14T14:23:14;24.10;92.40
3334;DHT22;1679;50.392;8.008;2023-06-14T14:25:40;23.70;92.80
3334;DHT22;1679;50.392;8.008;2023-06-14T14:28:07;23.70;93.60
3334;DHT22;1679;50.392;8.008;2023-06-14T14:30:33;23.70;93.60
3334;DHT22;1679;50.392;8.008;2023-06-14T14:32:59;23.70;94.70
3334;DHT22;1679;50.392;8.008;2023-06-14T14:35:25;24.00;94.60
3334;DHT22;1679;50.392;8.008;2023-06-14T14:37:55;24.30;93.80
3334;DHT22;1679;50.392;8.008;2023-06-14T14:40:21;24.30;93.60
3334;DHT22;1679;50.392;8.008;2023-06-14T14:42:47;24.60;94.00
3334;DHT22;1679;50.392;8.008;2023-06-14T14:45:13;24.30;93.90
3334;DHT22;1679;50.392;8.008;2023-06-14T14:47:38;24.00;94.10
3334;DHT22;1679;50.392;8.008;2023-06-14T14:50:04;23.80;94.50
3334;DHT22;1679;50.392;8.008;2023-06-14T14:52:34;23.40;94.50
3334;DHT22;1679;50.392;8.008;2023-06-14T14:54:59;23.10;94.60
3334;DHT22;1679;50.392;8.008;2023-06-14T14:57:26;22.70;95.70
3334;DHT22;1679;50.392;8.008;2023-06-14T14:59:51;22.70;95.60
3334;DHT22;1679;50.392;8.008;2023-06-14T15:02:17;22.90;95.30
3334;DHT22;1679;50.392;8.008;2023-06-14T15:04:43;23.20;94.00
3334;DHT22;1679;50.392;8.008;2023-06-14T15:07:08;23.60;93.70
3334;DHT22;1679;50.392;8.008;2023-06-14T15:09:34;23.90;92.80
3334;DHT22;1679;50.392;8.008;2023-06-14T15:12:00;24.10;92.50
3334;DHT22;1679;50.392;8.008;2023-06-14T15:14:25;24.30;92.70
3334;DHT22;1679;50.392;8.008;2023-06-14T15:16:51;24.20;93.00
3334;DHT22;1679;50.392;8.008;2023-06-14T15:19:17;24.10;92.90
3334;DHT22;1679;50.392;8.008;2023-06-14T15:21:43;23.80;92.80
3334;DHT22;1679;50.392;8.008;2023-06-14T15:24:08;23.80;93.90
3334;DHT22;1679;50.392;8.008;2023-06-14T15:26:35;23.90;95.80
3334;DHT22;1679;50.392;8.008;2023-06-14T15:29:01;23.90;93.20
3334;DHT22;1679;50.392;8.008;2023-06-14T15:31:27;23.80;94.00
3334;DHT22;1679;50.392;8.008;2023-06-14T15:33:54;23.90;93.70
3334;DHT22;1679;50.392;8.008;2023-06-14T15:36:19;23.70;92.90
3334;DHT22;1679;50.392;8.008;2023-06-14T15:38:45;23.70;92.30
3334;DHT22;1679;50.392;8.008;2023-06-14T15:41:10;23.50;92.70
3334;DHT22;1679;50.392;8.008;2023-06-14T15:43:36;23.70;92.30
3334;DHT22;1679;50.392;8.008;2023-06-14T15:46:01;23.80;93.00
3334;DHT22;1679;50.392;8.008;2023-06-14T15:48:27;24.10;92.30
3334;DHT22;1679;50.392;8.008;2023-06-14T15:50:52;24.30;92.00
3334;DHT22;1679;50.392;8.008;2023-06-14T15:53:19;24.50;91.60
3334;DHT22;1679;50.392;8.008;2023-06-14T15:55:46;24.60;91.70
3334;DHT22;1679;50.392;8.008;2023-06-14T15:58:11;24.50;92.90
3334;DHT22;1679;50.392;8.008;2023-06-14T16:00:38;24.60;93.40
3334;DHT22;1679;50.392;8.008;2023-06-14T16:03:03;24.40;92.70
3334;DHT22;1679;50.392;8.008;2023-06-14T16:05:29;24.20;92.90
3334;DHT22;1679;50.392;8.008;2023-06-14T16:07:54;24.00;93.40
3334;DHT22;1679;50.392;8.008;2023-06-14T16:10:20;23.60;94.70
3334;DHT22;1679;50.392;8.008;2023-06-14T16:12:45;23.40;95.10
3334;DHT22;1679;50.392;8.008;2023-06-14T16:15:11;23.20;94.30